WetterOnline ( https://www.wetteronline.de )

Wetter aktuell Schweinfurt

Aktuelles Wetter: Bad Kissingen (266m)

6-stündlich | Neueste Meldungen
Ortszeit Temperatur Wetter
Sa, 13.04. 2:00 11.0° C wolkig
Fr, 12.04. 20:00 17.0° C leicht bewölkt
Fr, 12.04. 14:00 19.6° C leicht bewölkt
Fr, 12.04. 8:00 5.2° C leicht bewölkt
Fr, 12.04. 2:00 7.5° C wolkig
Do, 11.04. 20:00 15.3° C bewölkt
Do, 11.04. 14:00 16.1° C leicht bewölkt
Do, 11.04. 8:00 1.5° C wolkenlos
Ortszeit Temperatur Wetter
Sa, 13.04. 6:30 9.5° C wolkig
Sa, 13.04. 6:20 9.5° C wolkig
Sa, 13.04. 6:10 9.4° C bedeckt
Sa, 13.04. 6:00 9.6° C bedeckt
Sa, 13.04. 5:50 9.6° C bedeckt
Sa, 13.04. 5:40 9.4° C bedeckt
Sa, 13.04. 5:30 9.4° C bedeckt
Sa, 13.04. 5:00 9.4° C bedeckt
Sa, 13.04. 4:30 9.0° C bewölkt
Sa, 13.04. 4:00 9.3° C bewölkt
Sa, 13.04. 3:30 9.7° C wolkig
Ortszeit Relative Feuchte Sichtweite
Sa, 13.04. 2:00 88% 60 km
Fr, 12.04. 20:00 65% >70 km
Fr, 12.04. 14:00 40% 55 km
Fr, 12.04. 8:00 86% 50 km
Fr, 12.04. 2:00 76% 55 km
Do, 11.04. 20:00 43% >70 km
Do, 11.04. 14:00 37% 40 km
Do, 11.04. 8:00 88% 65 km
Ortszeit Relative Feuchte Sichtweite
Sa, 13.04. 6:30 94% 35 km
Sa, 13.04. 6:20 94% -
Sa, 13.04. 6:10 94% -
Sa, 13.04. 6:00 93% 45 km
Sa, 13.04. 5:50 93% -
Sa, 13.04. 5:40 95% -
Sa, 13.04. 5:30 93% 40 km
Sa, 13.04. 5:00 94% 40 km
Sa, 13.04. 4:30 97% 35 km
Sa, 13.04. 4:00 94% 40 km
Sa, 13.04. 3:30 93% 50 km
Ortszeit Niederschlagsmenge Niederschlagsart
Sa, 13.04. 2:00 0.0 l/m2 in 6 Std. -
Fr, 12.04. 20:00 0.0 l/m2 in 12 Std. -
Fr, 12.04. 14:00 0.0 l/m2 in 6 Std. -
Fr, 12.04. 8:00 0.0 l/m2 in 12 Std. -
Fr, 12.04. 2:00 0.0 l/m2 in 6 Std. -
Do, 11.04. 20:00 0.0 l/m2 in 12 Std. -
Do, 11.04. 14:00 0.0 l/m2 in 6 Std. -
Do, 11.04. 8:00 0.0 l/m2 in 12 Std. -
Ortszeit Niederschlagsmenge Niederschlagsart
Sa, 13.04. 6:30 0.0 l/m2 in 30 Min -
Sa, 13.04. 6:20 keine Meldung -
Sa, 13.04. 6:10 keine Meldung -
Sa, 13.04. 6:00 0.0 l/m2 in 1 Std. -
Sa, 13.04. 5:50 keine Meldung -
Sa, 13.04. 5:40 keine Meldung -
Sa, 13.04. 5:30 0.0 l/m2 in 30 Min -
Sa, 13.04. 5:00 0.0 l/m2 in 1 Std. -
Sa, 13.04. 4:30 0.0 l/m2 in 30 Min -
Sa, 13.04. 4:00 0.0 l/m2 in 1 Std. -
Sa, 13.04. 3:30 0.0 l/m2 in 30 Min -
Ortszeit Stärke Spitze Richtung
km/h Bft. km/h Grad Sektor
Sa, 13.04. 2:00 6 1 24 180° S
Fr, 12.04. 20:00 14 3 36 300° NW
Fr, 12.04. 14:00 17 3 33 220° SW
Fr, 12.04. 8:00 4 1 7 20° N
Fr, 12.04. 2:00 2 1 13 30° NO
Do, 11.04. 20:00 9 2 28 300° NW
Do, 11.04. 14:00 14 3 29 160° S
Do, 11.04. 8:00 6 1 9 360° N
Ortszeit Stärke Spitze Richtung
km/h Bft. km/h Grad Sektor
Sa, 13.04. 6:30 7 2 11 180° S
Sa, 13.04. 6:20 7 2 - 180° S
Sa, 13.04. 6:10 6 1 - 200° S
Sa, 13.04. 6:00 4 1 7 180° S
Sa, 13.04. 5:50 4 1 - 180° S
Sa, 13.04. 5:40 4 1 - 180° S
Sa, 13.04. 5:30 4 1 7 210° SW
Sa, 13.04. 5:00 7 2 11 190° S
Sa, 13.04. 4:30 4 1 7 190° S
Sa, 13.04. 4:00 7 2 7 200° S
Sa, 13.04. 3:30 7 2 7 190° S
Ortszeit Untergrenze Bedeckung Gattung
total tief tief mittel hoch
Sa, 13.04. 2:00 7200 m 8/8 0/8 - - -
Fr, 12.04. 20:00 7200 m 8/8 0/8 - - -
Fr, 12.04. 14:00 8400 m 5/8 0/8 - - -
Fr, 12.04. 8:00 9000 m 5/8 0/8 - - -
Fr, 12.04. 2:00 9000 m 8/8 0/8 - - -
Do, 11.04. 20:00 3600 m 7/8 7/8 - - -
Do, 11.04. 14:00 9000 m 6/8 0/8 - - -
Do, 11.04. 8:00 - 0/8 0/8 - - -
Ortszeit Bedeckungsgrad in Achtel und Wolkenuntergrenze
Sa, 13.04. 6:30 1(1110m) 8(8700m) 8(9000m)
Sa, 13.04. 6:20 1(1110m) 8(8700m) 8(9000m)
Sa, 13.04. 6:10 8
Sa, 13.04. 6:00 8(1140m)
Sa, 13.04. 5:50 8(1140m)
Sa, 13.04. 5:40 8
Sa, 13.04. 5:30 8(1110m)
Sa, 13.04. 5:00 8(1140m)
Sa, 13.04. 4:30 6(1080m) 7(7800m) 7(9000m)
Sa, 13.04. 4:00 6(6300m) 8(9000m) 8(10500m)
Sa, 13.04. 3:30 2(1050m) 8(9000m) 8(9000m)
Ortszeit Luftdruck NN (hPa) Tendenz (hPa in 3 Std.)
Sa, 13.04. 2:00 1030 - 0,3
Fr, 12.04. 20:00 1030 - 0,3
Fr, 12.04. 14:00 1031 - 1,4
Fr, 12.04. 8:00 1035 + 0,3
Fr, 12.04. 2:00 1035 + 0,2
Do, 11.04. 20:00 1032 + 0,2
Do, 11.04. 14:00 1033 - 0,6
Do, 11.04. 8:00 1035 + 1,1
Ortszeit Luftdruck NN (hPa) Tendenz (hPa in 3 Std.)
Sa, 13.04. 6:30 1030 - 0,3
Sa, 13.04. 6:20 1030 keine Meldung
Sa, 13.04. 6:10 1030 keine Meldung
Sa, 13.04. 6:00 1030 - 0,5
Sa, 13.04. 5:50 1030 keine Meldung
Sa, 13.04. 5:40 1030 keine Meldung
Sa, 13.04. 5:30 1030 - 0,2
Sa, 13.04. 5:00 1030 - 0,2
Sa, 13.04. 4:30 1030 0,0
Sa, 13.04. 4:00 1030 - 0,2
Sa, 13.04. 3:30 1030 - 0,3
Ortszeit Schneehöhe (cm)
Sa, 13.04. 2:00 0
Fr, 12.04. 20:00 0
Fr, 12.04. 14:00 0
Fr, 12.04. 8:00 0
Fr, 12.04. 2:00 0
Do, 11.04. 20:00 0
Do, 11.04. 14:00 0
Do, 11.04. 8:00 0
Ortszeit Schneehöhe (cm)
Sa, 13.04. 6:30 0
Sa, 13.04. 6:20 0
Sa, 13.04. 6:10 -
Sa, 13.04. 6:00 0
Sa, 13.04. 5:50 0
Sa, 13.04. 5:40 -
Sa, 13.04. 5:30 0
Sa, 13.04. 5:00 0
Sa, 13.04. 4:30 0
Sa, 13.04. 4:00 0
Sa, 13.04. 3:30 0
Link zu dieser Seite / Seite empfehlen

Das Wetter in ...